Mocoreta, Argentina
Current Conditions -  °F | °C
As of 2:00 PM on Friday 21 Nov 2014 (Local Time) from SUSO Reporting Station
Moderate Rain Moderate Rain  
Wind Chill: 63°   Ceiling: 1000
Heat Index: 63°   Visibility: 6mi
Dew Point: 61°   Wind: 20mph
Humidity: 94%   Direction: 160°SSE
Pressure: 29.74"   Gusts: NA
Location:  30.63°S, 57.97°W
Report Text: SUSO 211700Z 16017KT 9000 RA OVC010 17/16 Q1007
Loading
Personal Weather Stations






























Interactive Weather Map New forecast layout! Learn more

10-Day Weather Forecast

Advertisements
Track Severe Weather on mobile